sensor_id;sensor_type;location;lat;lon;timestamp;temperature;humidity
5930;DHT22;2990;48.746;9.236;2023-02-21T00:01:59;6.70;99.90
5930;DHT22;2990;48.746;9.236;2023-02-21T00:04:43;6.50;99.90
5930;DHT22;2990;48.746;9.236;2023-02-21T00:07:27;6.60;99.90
5930;DHT22;2990;48.746;9.236;2023-02-21T00:10:14;6.60;99.90
5930;DHT22;2990;48.746;9.236;2023-02-21T00:13:00;6.60;99.90
5930;DHT22;2990;48.746;9.236;2023-02-21T00:15:44;6.60;99.90
5930;DHT22;2990;48.746;9.236;2023-02-21T00:18:33;6.50;99.90
5930;DHT22;2990;48.746;9.236;2023-02-21T00:21:17;6.50;99.90
5930;DHT22;2990;48.746;9.236;2023-02-21T00:24:00;6.50;99.90
5930;DHT22;2990;48.746;9.236;2023-02-21T00:26:45;6.50;99.90
5930;DHT22;2990;48.746;9.236;2023-02-21T00:29:29;6.50;99.90
5930;DHT22;2990;48.746;9.236;2023-02-21T00:32:13;6.60;99.90
5930;DHT22;2990;48.746;9.236;2023-02-21T00:34:57;6.50;99.90
5930;DHT22;2990;48.746;9.236;2023-02-21T00:37:41;6.40;99.90
5930;DHT22;2990;48.746;9.236;2023-02-21T00:40:25;6.40;99.90
5930;DHT22;2990;48.746;9.236;2023-02-21T00:43:09;6.50;99.90
5930;DHT22;2990;48.746;9.236;2023-02-21T00:45:53;6.40;99.90
5930;DHT22;2990;48.746;9.236;2023-02-21T00:48:38;6.40;99.90
5930;DHT22;2990;48.746;9.236;2023-02-21T00:51:22;6.40;99.90
5930;DHT22;2990;48.746;9.236;2023-02-21T00:54:06;6.40;99.90
5930;DHT22;2990;48.746;9.236;2023-02-21T00:56:50;6.50;99.90
5930;DHT22;2990;48.746;9.236;2023-02-21T00:59:34;6.60;99.90
5930;DHT22;2990;48.746;9.236;2023-02-21T01:02:18;6.50;99.90
5930;DHT22;2990;48.746;9.236;2023-02-21T01:05:02;6.50;99.90
5930;DHT22;2990;48.746;9.236;2023-02-21T01:07:47;6.60;99.90
5930;DHT22;2990;48.746;9.236;2023-02-21T01:10:31;6.50;99.90
5930;DHT22;2990;48.746;9.236;2023-02-21T01:13:15;6.50;99.90
5930;DHT22;2990;48.746;9.236;2023-02-21T01:15:59;6.50;99.90
5930;DHT22;2990;48.746;9.236;2023-02-21T01:18:43;6.50;99.90
5930;DHT22;2990;48.746;9.236;2023-02-21T01:21:27;6.40;99.90
5930;DHT22;2990;48.746;9.236;2023-02-21T01:24:13;6.50;99.90
5930;DHT22;2990;48.746;9.236;2023-02-21T01:26:58;6.40;99.90
5930;DHT22;2990;48.746;9.236;2023-02-21T01:29:43;6.40;99.90
5930;DHT22;2990;48.746;9.236;2023-02-21T01:32:27;6.50;99.90
5930;DHT22;2990;48.746;9.236;2023-02-21T01:35:11;6.40;99.90
5930;DHT22;2990;48.746;9.236;2023-02-21T01:37:55;6.50;99.90
5930;DHT22;2990;48.746;9.236;2023-02-21T01:40:39;6.50;99.90
5930;DHT22;2990;48.746;9.236;2023-02-21T01:43:26;6.50;99.90
5930;DHT22;2990;48.746;9.236;2023-02-21T01:46:18;6.50;99.90
5930;DHT22;2990;48.746;9.236;2023-02-21T01:49:09;6.40;99.90
5930;DHT22;2990;48.746;9.236;2023-02-21T01:51:55;6.30;99.90
5930;DHT22;2990;48.746;9.236;2023-02-21T01:54:45;6.20;99.90
5930;DHT22;2990;48.746;9.236;2023-02-21T01:57:29;6.30;99.90
5930;DHT22;2990;48.746;9.236;2023-02-21T02:00:15;6.40;99.90
5930;DHT22;2990;48.746;9.236;2023-02-21T02:05:57;6.40;99.90
5930;DHT22;2990;48.746;9.236;2023-02-21T02:08:42;6.40;99.90
5930;DHT22;2990;48.746;9.236;2023-02-21T02:11:50;6.60;99.90
5930;DHT22;2990;48.746;9.236;2023-02-21T02:21:13;6.50;99.90
5930;DHT22;2990;48.746;9.236;2023-02-21T02:35:21;6.50;99.90
5930;DHT22;2990;48.746;9.236;2023-02-21T02:43:37;6.50;99.90
5930;DHT22;2990;48.746;9.236;2023-02-21T02:46:28;6.50;99.90
5930;DHT22;2990;48.746;9.236;2023-02-21T02:49:02;6.40;99.90
5930;DHT22;2990;48.746;9.236;2023-02-21T02:51:32;6.30;99.90
5930;DHT22;2990;48.746;9.236;2023-02-21T02:53:58;6.60;99.90
5930;DHT22;2990;48.746;9.236;2023-02-21T02:56:24;6.40;99.90
5930;DHT22;2990;48.746;9.236;2023-02-21T03:07:34;6.30;99.90
5930;DHT22;2990;48.746;9.236;2023-02-21T03:10:44;6.20;99.90
5930;DHT22;2990;48.746;9.236;2023-02-21T03:15:56;6.30;99.90
5930;DHT22;2990;48.746;9.236;2023-02-21T03:18:32;6.20;99.90
5930;DHT22;2990;48.746;9.236;2023-02-21T03:21:02;6.20;99.90
5930;DHT22;2990;48.746;9.236;2023-02-21T03:23:31;6.40;99.90
5930;DHT22;2990;48.746;9.236;2023-02-21T03:26:02;6.20;99.90
5930;DHT22;2990;48.746;9.236;2023-02-21T03:28:30;6.20;99.90
5930;DHT22;2990;48.746;9.236;2023-02-21T03:30:58;6.20;99.90
5930;DHT22;2990;48.746;9.236;2023-02-21T03:33:24;6.20;99.90
5930;DHT22;2990;48.746;9.236;2023-02-21T03:35:51;6.10;99.90
5930;DHT22;2990;48.746;9.236;2023-02-21T03:38:18;6.10;99.90
5930;DHT22;2990;48.746;9.236;2023-02-21T03:40:43;6.20;99.90
5930;DHT22;2990;48.746;9.236;2023-02-21T03:43:09;6.10;99.90
5930;DHT22;2990;48.746;9.236;2023-02-21T03:45:35;6.10;99.90
5930;DHT22;2990;48.746;9.236;2023-02-21T03:48:02;6.10;99.90
5930;DHT22;2990;48.746;9.236;2023-02-21T03:50:28;6.00;99.90
5930;DHT22;2990;48.746;9.236;2023-02-21T03:52:54;5.90;99.90
5930;DHT22;2990;48.746;9.236;2023-02-21T03:55:19;5.90;99.90
5930;DHT22;2990;48.746;9.236;2023-02-21T03:57:47;6.00;99.90
5930;DHT22;2990;48.746;9.236;2023-02-21T04:00:13;6.00;99.90
5930;DHT22;2990;48.746;9.236;2023-02-21T04:02:39;5.90;99.90
5930;DHT22;2990;48.746;9.236;2023-02-21T04:05:05;5.80;99.90
5930;DHT22;2990;48.746;9.236;2023-02-21T04:07:31;5.80;99.90
5930;DHT22;2990;48.746;9.236;2023-02-21T04:09:56;5.80;99.90
5930;DHT22;2990;48.746;9.236;2023-02-21T04:12:22;5.70;99.90
5930;DHT22;2990;48.746;9.236;2023-02-21T04:14:48;5.70;99.90
5930;DHT22;2990;48.746;9.236;2023-02-21T04:17:13;5.60;99.90
5930;DHT22;2990;48.746;9.236;2023-02-21T04:19:40;5.70;99.90
5930;DHT22;2990;48.746;9.236;2023-02-21T04:22:06;5.70;99.90
5930;DHT22;2990;48.746;9.236;2023-02-21T04:24:31;5.60;99.90
5930;DHT22;2990;48.746;9.236;2023-02-21T04:26:57;5.60;99.90
5930;DHT22;2990;48.746;9.236;2023-02-21T04:29:23;5.50;99.90
5930;DHT22;2990;48.746;9.236;2023-02-21T04:31:48;5.60;99.90
5930;DHT22;2990;48.746;9.236;2023-02-21T04:34:14;5.70;99.90
5930;DHT22;2990;48.746;9.236;2023-02-21T04:36:39;5.60;99.90
5930;DHT22;2990;48.746;9.236;2023-02-21T04:39:06;5.60;99.90
5930;DHT22;2990;48.746;9.236;2023-02-21T04:41:31;5.60;99.90
5930;DHT22;2990;48.746;9.236;2023-02-21T04:43:57;5.50;99.90
5930;DHT22;2990;48.746;9.236;2023-02-21T04:46:23;5.50;99.90
5930;DHT22;2990;48.746;9.236;2023-02-21T04:48:49;5.40;99.90
5930;DHT22;2990;48.746;9.236;2023-02-21T04:51:17;5.40;99.90
5930;DHT22;2990;48.746;9.236;2023-02-21T04:53:45;5.60;99.90
5930;DHT22;2990;48.746;9.236;2023-02-21T04:56:11;5.40;99.90
5930;DHT22;2990;48.746;9.236;2023-02-21T04:58:37;5.40;99.90
5930;DHT22;2990;48.746;9.236;2023-02-21T05:01:03;5.30;99.90
5930;DHT22;2990;48.746;9.236;2023-02-21T05:03:28;5.20;99.90
5930;DHT22;2990;48.746;9.236;2023-02-21T05:05:54;5.10;99.90
5930;DHT22;2990;48.746;9.236;2023-02-21T05:08:20;5.10;99.90
5930;DHT22;2990;48.746;9.236;2023-02-21T05:10:46;5.10;99.90
5930;DHT22;2990;48.746;9.236;2023-02-21T05:13:12;5.00;1.00
5930;DHT22;2990;48.746;9.236;2023-02-21T05:15:38;4.90;1.00
5930;DHT22;2990;48.746;9.236;2023-02-21T05:18:04;4.70;1.00
5930;DHT22;2990;48.746;9.236;2023-02-21T05:20:32;4.80;1.00
5930;DHT22;2990;48.746;9.236;2023-02-21T05:22:57;4.40;1.00
5930;DHT22;2990;48.746;9.236;2023-02-21T05:25:23;4.40;1.00
5930;DHT22;2990;48.746;9.236;2023-02-21T05:27:50;4.60;1.00
5930;DHT22;2990;48.746;9.236;2023-02-21T05:30:19;4.70;1.00
5930;DHT22;2990;48.746;9.236;2023-02-21T05:32:46;4.50;1.00
5930;DHT22;2990;48.746;9.236;2023-02-21T05:35:14;4.50;1.00
5930;DHT22;2990;48.746;9.236;2023-02-21T05:37:40;4.50;1.00
5930;DHT22;2990;48.746;9.236;2023-02-21T05:40:06;4.40;1.00
5930;DHT22;2990;48.746;9.236;2023-02-21T05:42:32;4.40;1.00
5930;DHT22;2990;48.746;9.236;2023-02-21T05:44:57;4.60;1.00
5930;DHT22;2990;48.746;9.236;2023-02-21T05:47:23;4.40;1.00
5930;DHT22;2990;48.746;9.236;2023-02-21T05:49:49;4.40;1.00
5930;DHT22;2990;48.746;9.236;2023-02-21T05:52:15;4.50;1.00
5930;DHT22;2990;48.746;9.236;2023-02-21T05:54:41;4.40;1.00
5930;DHT22;2990;48.746;9.236;2023-02-21T05:57:07;4.50;1.00
5930;DHT22;2990;48.746;9.236;2023-02-21T05:59:33;4.50;1.00
5930;DHT22;2990;48.746;9.236;2023-02-21T06:01:59;4.50;1.00
5930;DHT22;2990;48.746;9.236;2023-02-21T06:04:24;4.50;1.00
5930;DHT22;2990;48.746;9.236;2023-02-21T06:06:50;4.50;1.00
5930;DHT22;2990;48.746;9.236;2023-02-21T06:09:17;4.50;1.00
5930;DHT22;2990;48.746;9.236;2023-02-21T06:11:44;4.50;1.00
5930;DHT22;2990;48.746;9.236;2023-02-21T06:14:18;4.50;1.00
5930;DHT22;2990;48.746;9.236;2023-02-21T06:16:44;4.60;1.00
5930;DHT22;2990;48.746;9.236;2023-02-21T06:19:11;4.60;1.00
5930;DHT22;2990;48.746;9.236;2023-02-21T06:21:38;4.70;1.00
5930;DHT22;2990;48.746;9.236;2023-02-21T06:24:05;4.70;1.00
5930;DHT22;2990;48.746;9.236;2023-02-21T06:26:33;4.80;1.00
5930;DHT22;2990;48.746;9.236;2023-02-21T06:29:00;4.80;1.00
5930;DHT22;2990;48.746;9.236;2023-02-21T06:31:25;4.90;1.00
5930;DHT22;2990;48.746;9.236;2023-02-21T06:33:51;5.00;1.00
5930;DHT22;2990;48.746;9.236;2023-02-21T06:36:20;5.00;1.00
5930;DHT22;2990;48.746;9.236;2023-02-21T06:38:47;5.10;1.00
5930;DHT22;2990;48.746;9.236;2023-02-21T06:41:18;5.10;1.00
5930;DHT22;2990;48.746;9.236;2023-02-21T06:43:44;5.00;1.00
5930;DHT22;2990;48.746;9.236;2023-02-21T06:46:15;5.10;1.00
5930;DHT22;2990;48.746;9.236;2023-02-21T06:48:41;5.10;1.00
5930;DHT22;2990;48.746;9.236;2023-02-21T06:51:07;5.10;1.00
5930;DHT22;2990;48.746;9.236;2023-02-21T06:53:36;5.10;1.00
5930;DHT22;2990;48.746;9.236;2023-02-21T06:56:02;5.10;1.00
5930;DHT22;2990;48.746;9.236;2023-02-21T06:58:27;5.10;1.00
5930;DHT22;2990;48.746;9.236;2023-02-21T07:00:55;5.00;1.00
5930;DHT22;2990;48.746;9.236;2023-02-21T07:03:21;5.00;1.00
5930;DHT22;2990;48.746;9.236;2023-02-21T07:05:46;4.90;1.00
5930;DHT22;2990;48.746;9.236;2023-02-21T07:08:12;4.70;1.00
5930;DHT22;2990;48.746;9.236;2023-02-21T07:10:38;4.70;1.00
5930;DHT22;2990;48.746;9.236;2023-02-21T07:13:03;4.70;1.00
5930;DHT22;2990;48.746;9.236;2023-02-21T07:15:29;4.60;1.00
5930;DHT22;2990;48.746;9.236;2023-02-21T07:17:55;4.70;1.00
5930;DHT22;2990;48.746;9.236;2023-02-21T07:20:20;4.60;99.90
5930;DHT22;2990;48.746;9.236;2023-02-21T07:22:46;4.70;99.90
5930;DHT22;2990;48.746;9.236;2023-02-21T07:25:17;4.80;99.90
5930;DHT22;2990;48.746;9.236;2023-02-21T07:27:43;4.90;99.90
5930;DHT22;2990;48.746;9.236;2023-02-21T07:30:11;5.10;99.90
5930;DHT22;2990;48.746;9.236;2023-02-21T07:32:36;5.10;99.90
5930;DHT22;2990;48.746;9.236;2023-02-21T07:35:03;5.10;99.90
5930;DHT22;2990;48.746;9.236;2023-02-21T07:37:28;5.10;99.90
5930;DHT22;2990;48.746;9.236;2023-02-21T07:39:54;5.10;99.90
5930;DHT22;2990;48.746;9.236;2023-02-21T07:42:19;5.10;99.90
5930;DHT22;2990;48.746;9.236;2023-02-21T07:44:46;5.10;99.90
5930;DHT22;2990;48.746;9.236;2023-02-21T07:47:12;5.20;99.90
5930;DHT22;2990;48.746;9.236;2023-02-21T07:49:41;5.30;99.90
5930;DHT22;2990;48.746;9.236;2023-02-21T07:52:09;5.50;99.90
5930;DHT22;2990;48.746;9.236;2023-02-21T07:54:35;5.60;1.00
5930;DHT22;2990;48.746;9.236;2023-02-21T07:57:00;5.80;1.00
5930;DHT22;2990;48.746;9.236;2023-02-21T07:59:26;5.90;1.00
5930;DHT22;2990;48.746;9.236;2023-02-21T08:01:52;6.00;1.00
5930;DHT22;2990;48.746;9.236;2023-02-21T08:04:17;6.00;1.00
5930;DHT22;2990;48.746;9.236;2023-02-21T08:06:49;6.00;1.00
5930;DHT22;2990;48.746;9.236;2023-02-21T08:09:15;6.00;1.00
5930;DHT22;2990;48.746;9.236;2023-02-21T08:11:40;6.10;1.00
5930;DHT22;2990;48.746;9.236;2023-02-21T08:14:06;5.90;1.00
5930;DHT22;2990;48.746;9.236;2023-02-21T08:16:32;6.00;1.00
5930;DHT22;2990;48.746;9.236;2023-02-21T08:18:58;5.90;1.00
5930;DHT22;2990;48.746;9.236;2023-02-21T08:21:24;6.00;1.00
5930;DHT22;2990;48.746;9.236;2023-02-21T08:23:53;6.10;1.00
5930;DHT22;2990;48.746;9.236;2023-02-21T08:26:19;6.20;1.00
5930;DHT22;2990;48.746;9.236;2023-02-21T08:28:45;6.30;1.00
5930;DHT22;2990;48.746;9.236;2023-02-21T08:31:11;6.50;1.00
5930;DHT22;2990;48.746;9.236;2023-02-21T08:33:37;6.70;1.00
5930;DHT22;2990;48.746;9.236;2023-02-21T08:36:03;7.00;1.00
5930;DHT22;2990;48.746;9.236;2023-02-21T08:38:29;7.20;1.00
5930;DHT22;2990;48.746;9.236;2023-02-21T08:40:54;7.40;1.00
5930;DHT22;2990;48.746;9.236;2023-02-21T08:43:20;7.70;1.00
5930;DHT22;2990;48.746;9.236;2023-02-21T08:45:45;8.00;99.90
5930;DHT22;2990;48.746;9.236;2023-02-21T08:48:12;8.20;99.90
5930;DHT22;2990;48.746;9.236;2023-02-21T08:50:37;8.50;99.90
5930;DHT22;2990;48.746;9.236;2023-02-21T08:53:03;8.70;99.90
5930;DHT22;2990;48.746;9.236;2023-02-21T08:55:29;9.00;99.90
5930;DHT22;2990;48.746;9.236;2023-02-21T08:57:54;9.20;99.90
5930;DHT22;2990;48.746;9.236;2023-02-21T09:03:13;9.70;99.90
5930;DHT22;2990;48.746;9.236;2023-02-21T09:05:39;9.80;99.90
5930;DHT22;2990;48.746;9.236;2023-02-21T09:08:05;10.20;99.90
5930;DHT22;2990;48.746;9.236;2023-02-21T09:10:34;10.30;99.90
5930;DHT22;2990;48.746;9.236;2023-02-21T09:13:00;10.70;99.90
5930;DHT22;2990;48.746;9.236;2023-02-21T09:15:29;11.00;99.90
5930;DHT22;2990;48.746;9.236;2023-02-21T09:17:54;11.20;99.90
5930;DHT22;2990;48.746;9.236;2023-02-21T09:20:23;11.50;99.90
5930;DHT22;2990;48.746;9.236;2023-02-21T09:22:49;11.70;99.90
5930;DHT22;2990;48.746;9.236;2023-02-21T09:25:18;12.00;99.90
5930;DHT22;2990;48.746;9.236;2023-02-21T09:27:44;12.20;99.90
5930;DHT22;2990;48.746;9.236;2023-02-21T09:30:20;12.40;99.90
5930;DHT22;2990;48.746;9.236;2023-02-21T09:32:48;12.70;99.90
5930;DHT22;2990;48.746;9.236;2023-02-21T09:35:15;12.90;99.90
5930;DHT22;2990;48.746;9.236;2023-02-21T09:37:42;13.10;99.90
5930;DHT22;2990;48.746;9.236;2023-02-21T09:40:24;13.30;99.90
5930;DHT22;2990;48.746;9.236;2023-02-21T09:42:55;13.50;99.90
5930;DHT22;2990;48.746;9.236;2023-02-21T09:45:22;13.70;99.90
5930;DHT22;2990;48.746;9.236;2023-02-21T09:47:52;13.90;99.90
5930;DHT22;2990;48.746;9.236;2023-02-21T09:50:24;14.00;99.90
5930;DHT22;2990;48.746;9.236;2023-02-21T09:52:52;14.20;99.50
5930;DHT22;2990;48.746;9.236;2023-02-21T09:57:51;14.90;86.00
5930;DHT22;2990;48.746;9.236;2023-02-21T10:00:21;15.00;66.50
5930;DHT22;2990;48.746;9.236;2023-02-21T10:05:54;15.10;49.60
5930;DHT22;2990;48.746;9.236;2023-02-21T10:08:48;14.90;45.30
5930;DHT22;2990;48.746;9.236;2023-02-21T10:13:48;14.90;55.80
5930;DHT22;2990;48.746;9.236;2023-02-21T10:21:52;15.20;46.70
5930;DHT22;2990;48.746;9.236;2023-02-21T10:24:22;15.50;38.90
5930;DHT22;2990;48.746;9.236;2023-02-21T10:27:06;15.60;39.50
5930;DHT22;2990;48.746;9.236;2023-02-21T10:32:11;15.60;34.60
5930;DHT22;2990;48.746;9.236;2023-02-21T10:34:38;15.60;45.50
5930;DHT22;2990;48.746;9.236;2023-02-21T10:37:26;15.80;38.30
5930;DHT22;2990;48.746;9.236;2023-02-21T10:39:57;15.90;33.60
5930;DHT22;2990;48.746;9.236;2023-02-21T10:42:42;15.90;27.10
5930;DHT22;2990;48.746;9.236;2023-02-21T10:45:10;15.80;27.10
5930;DHT22;2990;48.746;9.236;2023-02-21T10:50:07;16.10;29.00
5930;DHT22;2990;48.746;9.236;2023-02-21T10:52:45;16.20;20.80
5930;DHT22;2990;48.746;9.236;2023-02-21T10:55:20;16.30;19.30
5930;DHT22;2990;48.746;9.236;2023-02-21T10:57:50;16.40;17.80
5930;DHT22;2990;48.746;9.236;2023-02-21T11:00:34;16.40;19.70
5930;DHT22;2990;48.746;9.236;2023-02-21T11:05:52;16.30;18.40
5930;DHT22;2990;48.746;9.236;2023-02-21T11:08:39;16.10;36.80
5930;DHT22;2990;48.746;9.236;2023-02-21T11:11:05;16.00;14.10
5930;DHT22;2990;48.746;9.236;2023-02-21T11:13:32;16.00;20.90
5930;DHT22;2990;48.746;9.236;2023-02-21T11:16:16;15.90;21.30
5930;DHT22;2990;48.746;9.236;2023-02-21T11:18:42;15.70;14.90
5930;DHT22;2990;48.746;9.236;2023-02-21T11:21:13;15.70;20.10
5930;DHT22;2990;48.746;9.236;2023-02-21T11:24:00;15.90;12.40
5930;DHT22;2990;48.746;9.236;2023-02-21T11:26:47;16.00;5.50
5930;DHT22;2990;48.746;9.236;2023-02-21T11:29:17;15.90;4.80
5930;DHT22;2990;48.746;9.236;2023-02-21T11:31:45;16.00;4.40
5930;DHT22;2990;48.746;9.236;2023-02-21T11:34:13;16.10;2.00
5930;DHT22;2990;48.746;9.236;2023-02-21T11:36:41;16.10;3.50
5930;DHT22;2990;48.746;9.236;2023-02-21T11:39:21;16.40;1.00
5930;DHT22;2990;48.746;9.236;2023-02-21T11:45:27;16.80;1.00
5930;DHT22;2990;48.746;9.236;2023-02-21T11:48:00;17.10;1.00
5930;DHT22;2990;48.746;9.236;2023-02-21T11:50:29;16.90;1.00
5930;DHT22;2990;48.746;9.236;2023-02-21T11:53:21;17.20;1.00
5930;DHT22;2990;48.746;9.236;2023-02-21T11:56:01;17.10;1.00
5930;DHT22;2990;48.746;9.236;2023-02-21T11:58:42;17.00;1.00
5930;DHT22;2990;48.746;9.236;2023-02-21T12:01:15;16.90;1.00
5930;DHT22;2990;48.746;9.236;2023-02-21T12:06:49;16.60;1.00
5930;DHT22;2990;48.746;9.236;2023-02-21T12:12:22;16.60;1.00
5930;DHT22;2990;48.746;9.236;2023-02-21T12:15:04;16.60;1.00
5930;DHT22;2990;48.746;9.236;2023-02-21T12:20:59;16.50;1.00
5930;DHT22;2990;48.746;9.236;2023-02-21T12:23:41;16.60;1.00
5930;DHT22;2990;48.746;9.236;2023-02-21T12:26:30;16.60;1.00
5930;DHT22;2990;48.746;9.236;2023-02-21T12:37:23;16.50;1.00
5930;DHT22;2990;48.746;9.236;2023-02-21T12:43:09;16.80;1.00
5930;DHT22;2990;48.746;9.236;2023-02-21T12:46:05;17.00;1.00
5930;DHT22;2990;48.746;9.236;2023-02-21T12:48:58;16.90;1.00
5930;DHT22;2990;48.746;9.236;2023-02-21T12:51:33;16.80;1.00
5930;DHT22;2990;48.746;9.236;2023-02-21T12:54:05;16.80;1.00
5930;DHT22;2990;48.746;9.236;2023-02-21T12:56:44;16.90;1.00
5930;DHT22;2990;48.746;9.236;2023-02-21T12:59:35;17.00;1.00
5930;DHT22;2990;48.746;9.236;2023-02-21T13:04:54;17.10;1.00
5930;DHT22;2990;48.746;9.236;2023-02-21T13:07:31;17.20;1.00
5930;DHT22;2990;48.746;9.236;2023-02-21T13:10:12;17.30;1.00
5930;DHT22;2990;48.746;9.236;2023-02-21T13:13:07;17.10;1.00
5930;DHT22;2990;48.746;9.236;2023-02-21T13:15:34;17.00;1.00
5930;DHT22;2990;48.746;9.236;2023-02-21T13:18:01;17.00;1.00
5930;DHT22;2990;48.746;9.236;2023-02-21T13:20:35;17.20;1.00
5930;DHT22;2990;48.746;9.236;2023-02-21T13:23:02;17.40;1.00
5930;DHT22;2990;48.746;9.236;2023-02-21T13:28:29;17.40;1.00
5930;DHT22;2990;48.746;9.236;2023-02-21T13:31:04;17.40;1.00
5930;DHT22;2990;48.746;9.236;2023-02-21T13:33:40;17.30;1.00
5930;DHT22;2990;48.746;9.236;2023-02-21T13:39:02;17.10;1.00
5930;DHT22;2990;48.746;9.236;2023-02-21T13:41:32;17.10;1.00
5930;DHT22;2990;48.746;9.236;2023-02-21T13:43:59;17.10;1.00
5930;DHT22;2990;48.746;9.236;2023-02-21T13:57:43;17.00;1.00
5930;DHT22;2990;48.746;9.236;2023-02-21T14:03:10;16.90;1.00
5930;DHT22;2990;48.746;9.236;2023-02-21T14:08:43;17.10;1.00
5930;DHT22;2990;48.746;9.236;2023-02-21T14:11:15;17.30;1.00
5930;DHT22;2990;48.746;9.236;2023-02-21T14:13:55;17.20;1.00
5930;DHT22;2990;48.746;9.236;2023-02-21T14:16:34;17.20;1.00
5930;DHT22;2990;48.746;9.236;2023-02-21T14:19:09;17.10;1.00
5930;DHT22;2990;48.746;9.236;2023-02-21T14:24:11;17.20;1.00
5930;DHT22;2990;48.746;9.236;2023-02-21T14:29:38;17.40;1.00
5930;DHT22;2990;48.746;9.236;2023-02-21T14:34:51;17.40;1.00
5930;DHT22;2990;48.746;9.236;2023-02-21T14:45:35;17.10;1.00
5930;DHT22;2990;48.746;9.236;2023-02-21T14:59:07;16.90;1.00
5930;DHT22;2990;48.746;9.236;2023-02-21T15:01:55;16.80;1.00
5930;DHT22;2990;48.746;9.236;2023-02-21T15:07:19;16.70;1.00
5930;DHT22;2990;48.746;9.236;2023-02-21T15:10:14;16.60;1.00
5930;DHT22;2990;48.746;9.236;2023-02-21T15:12:49;16.60;1.00
5930;DHT22;2990;48.746;9.236;2023-02-21T15:18:02;16.40;1.00
5930;DHT22;2990;48.746;9.236;2023-02-21T15:20:28;16.40;1.00
5930;DHT22;2990;48.746;9.236;2023-02-21T15:23:15;16.30;1.00
5930;DHT22;2990;48.746;9.236;2023-02-21T15:25:44;16.20;1.00
5930;DHT22;2990;48.746;9.236;2023-02-21T15:28:26;16.20;1.00
5930;DHT22;2990;48.746;9.236;2023-02-21T15:31:07;16.20;1.00
5930;DHT22;2990;48.746;9.236;2023-02-21T15:33:38;16.20;1.00
5930;DHT22;2990;48.746;9.236;2023-02-21T15:41:26;16.10;1.00
5930;DHT22;2990;48.746;9.236;2023-02-21T15:46:45;15.90;1.00
5930;DHT22;2990;48.746;9.236;2023-02-21T15:49:20;15.90;1.00
5930;DHT22;2990;48.746;9.236;2023-02-21T15:51:48;15.70;1.00
5930;DHT22;2990;48.746;9.236;2023-02-21T15:56:43;15.60;1.00
5930;DHT22;2990;48.746;9.236;2023-02-21T15:59:19;15.50;1.00
5930;DHT22;2990;48.746;9.236;2023-02-21T16:02:05;15.50;1.00
5930;DHT22;2990;48.746;9.236;2023-02-21T16:04:35;15.40;1.00
5930;DHT22;2990;48.746;9.236;2023-02-21T16:07:01;15.10;1.00
5930;DHT22;2990;48.746;9.236;2023-02-21T16:09:29;15.30;1.60
5930;DHT22;2990;48.746;9.236;2023-02-21T16:15:05;15.00;1.00
5930;DHT22;2990;48.746;9.236;2023-02-21T16:17:33;14.90;1.00
5930;DHT22;2990;48.746;9.236;2023-02-21T16:22:46;14.70;2.20
5930;DHT22;2990;48.746;9.236;2023-02-21T16:25:20;14.50;1.00
5930;DHT22;2990;48.746;9.236;2023-02-21T16:27:55;14.50;5.40
5930;DHT22;2990;48.746;9.236;2023-02-21T16:30:25;14.40;3.20
5930;DHT22;2990;48.746;9.236;2023-02-21T16:32:53;14.40;11.50
5930;DHT22;2990;48.746;9.236;2023-02-21T16:35:24;14.20;13.00
5930;DHT22;2990;48.746;9.236;2023-02-21T16:37:55;14.10;12.70
5930;DHT22;2990;48.746;9.236;2023-02-21T16:40:24;14.20;14.00
5930;DHT22;2990;48.746;9.236;2023-02-21T16:42:51;13.90;12.70
5930;DHT22;2990;48.746;9.236;2023-02-21T16:48:44;13.60;13.70
5930;DHT22;2990;48.746;9.236;2023-02-21T16:51:12;13.40;14.30
5930;DHT22;2990;48.746;9.236;2023-02-21T16:53:38;13.50;14.40
5930;DHT22;2990;48.746;9.236;2023-02-21T16:56:04;13.50;13.80
5930;DHT22;2990;48.746;9.236;2023-02-21T16:58:32;13.40;13.20
5930;DHT22;2990;48.746;9.236;2023-02-21T17:01:01;13.30;33.40
5930;DHT22;2990;48.746;9.236;2023-02-21T17:03:30;13.20;43.30
5930;DHT22;2990;48.746;9.236;2023-02-21T17:05:57;13.10;28.90
5930;DHT22;2990;48.746;9.236;2023-02-21T17:08:24;13.00;31.90
5930;DHT22;2990;48.746;9.236;2023-02-21T17:10:51;12.90;33.10
5930;DHT22;2990;48.746;9.236;2023-02-21T17:13:16;13.00;34.60
5930;DHT22;2990;48.746;9.236;2023-02-21T17:15:42;12.80;34.10
5930;DHT22;2990;48.746;9.236;2023-02-21T17:18:08;12.70;42.90
5930;DHT22;2990;48.746;9.236;2023-02-21T17:20:34;12.90;39.40
5930;DHT22;2990;48.746;9.236;2023-02-21T17:22:59;12.60;39.30
5930;DHT22;2990;48.746;9.236;2023-02-21T17:25:27;12.70;44.50
5930;DHT22;2990;48.746;9.236;2023-02-21T17:27:53;12.30;47.30
5930;DHT22;2990;48.746;9.236;2023-02-21T17:30:23;12.50;47.80
5930;DHT22;2990;48.746;9.236;2023-02-21T17:32:49;12.30;51.10
5930;DHT22;2990;48.746;9.236;2023-02-21T17:35:17;12.20;53.30
5930;DHT22;2990;48.746;9.236;2023-02-21T17:37:44;12.20;54.40
5930;DHT22;2990;48.746;9.236;2023-02-21T17:40:12;12.20;83.90
5930;DHT22;2990;48.746;9.236;2023-02-21T17:42:38;12.20;59.90
5930;DHT22;2990;48.746;9.236;2023-02-21T17:48:17;12.20;60.10
5930;DHT22;2990;48.746;9.236;2023-02-21T17:50:45;12.00;69.70
5930;DHT22;2990;48.746;9.236;2023-02-21T17:53:37;11.90;71.50
5930;DHT22;2990;48.746;9.236;2023-02-21T17:56:03;11.70;81.90
5930;DHT22;2990;48.746;9.236;2023-02-21T17:58:29;11.60;77.00
5930;DHT22;2990;48.746;9.236;2023-02-21T18:00:58;11.60;81.10
5930;DHT22;2990;48.746;9.236;2023-02-21T18:03:24;11.50;84.50
5930;DHT22;2990;48.746;9.236;2023-02-21T18:05:50;11.50;85.20
5930;DHT22;2990;48.746;9.236;2023-02-21T18:08:17;11.70;90.40
5930;DHT22;2990;48.746;9.236;2023-02-21T18:10:43;11.60;90.30
5930;DHT22;2990;48.746;9.236;2023-02-21T18:13:19;11.50;94.00
5930;DHT22;2990;48.746;9.236;2023-02-21T18:15:45;11.60;91.30
5930;DHT22;2990;48.746;9.236;2023-02-21T18:18:11;11.50;94.30
5930;DHT22;2990;48.746;9.236;2023-02-21T18:20:37;11.60;90.00
5930;DHT22;2990;48.746;9.236;2023-02-21T18:23:03;11.40;98.20
5930;DHT22;2990;48.746;9.236;2023-02-21T18:25:33;11.10;93.90
5930;DHT22;2990;48.746;9.236;2023-02-21T18:28:00;11.30;89.90
5930;DHT22;2990;48.746;9.236;2023-02-21T18:30:26;11.20;92.70
5930;DHT22;2990;48.746;9.236;2023-02-21T18:32:54;11.10;93.60
5930;DHT22;2990;48.746;9.236;2023-02-21T18:35:20;11.10;99.90
5930;DHT22;2990;48.746;9.236;2023-02-21T18:37:46;11.20;99.90
5930;DHT22;2990;48.746;9.236;2023-02-21T18:40:14;11.20;90.00
5930;DHT22;2990;48.746;9.236;2023-02-21T18:42:40;11.20;99.90
5930;DHT22;2990;48.746;9.236;2023-02-21T18:45:06;11.10;99.90
5930;DHT22;2990;48.746;9.236;2023-02-21T18:47:32;11.20;99.90
5930;DHT22;2990;48.746;9.236;2023-02-21T18:50:00;11.20;99.90
5930;DHT22;2990;48.746;9.236;2023-02-21T18:52:41;11.20;99.90
5930;DHT22;2990;48.746;9.236;2023-02-21T18:55:34;11.20;99.90
5930;DHT22;2990;48.746;9.236;2023-02-21T19:01:52;11.10;99.90
5930;DHT22;2990;48.746;9.236;2023-02-21T19:08:06;11.00;99.90
5930;DHT22;2990;48.746;9.236;2023-02-21T19:10:32;11.00;99.90
5930;DHT22;2990;48.746;9.236;2023-02-21T19:12:57;10.90;99.90
5930;DHT22;2990;48.746;9.236;2023-02-21T19:15:24;10.90;99.90
5930;DHT22;2990;48.746;9.236;2023-02-21T19:17:50;10.90;99.90
5930;DHT22;2990;48.746;9.236;2023-02-21T19:20:16;10.80;99.90
5930;DHT22;2990;48.746;9.236;2023-02-21T19:22:44;10.80;99.90
5930;DHT22;2990;48.746;9.236;2023-02-21T19:25:10;10.70;99.90
5930;DHT22;2990;48.746;9.236;2023-02-21T19:27:36;10.50;99.90
5930;DHT22;2990;48.746;9.236;2023-02-21T19:30:03;10.60;99.90
5930;DHT22;2990;48.746;9.236;2023-02-21T19:32:28;10.40;99.90
5930;DHT22;2990;48.746;9.236;2023-02-21T19:34:54;10.40;99.90
5930;DHT22;2990;48.746;9.236;2023-02-21T19:37:19;10.50;99.90
5930;DHT22;2990;48.746;9.236;2023-02-21T19:39:51;10.50;99.90
5930;DHT22;2990;48.746;9.236;2023-02-21T19:42:16;10.50;99.90